Time;durP1;ratioP1;P1;durP2;ratioP2;P2;SDS_P1;SDS_P2;PMS_P1;PMS_P2;Temp;Humidity;BMP_temperature;BMP_pressure;BME280_temperature;BME280_humidity;BME280_pressure;Samples;Min_cycle;Max_cycle;Signal;HPM_P1;HPM_P2
2021/05/22 00:00:40;;;;;;;0.55;0.40;;;12.10;71.10;;;;;;5066475;28;20044;-46
2021/05/22 00:03:05;;;;;;;0.75;0.50;;;12.10;70.80;;;;;;5066141;28;20045;-45
2021/05/22 00:05:31;;;;;;;1.27;0.50;;;12.10;71.20;;;;;;5066144;28;20275;-45
2021/05/22 00:07:56;;;;;;;3.60;0.40;;;12.00;71.00;;;;;;5066164;28;20036;-45
2021/05/22 00:10:22;;;;;;;1.77;0.50;;;12.00;71.00;;;;;;5067768;28;20037;-47
2021/05/22 00:12:47;;;;;;;2.38;0.40;;;11.90;71.70;;;;;;5065986;28;20083;-46
2021/05/22 00:15:15;;;;;;;2.63;0.50;;;12.00;71.40;;;;;;5065938;28;20332;-46
2021/05/22 00:17:41;;;;;;;1.05;0.43;;;12.00;71.50;;;;;;5065981;28;20044;-45
2021/05/22 00:20:07;;;;;;;0.68;0.43;;;11.90;71.40;;;;;;5064710;28;20275;-45
2021/05/22 00:22:32;;;;;;;0.75;0.50;;;11.90;71.30;;;;;;5064385;28;20044;-46
2021/05/22 00:24:58;;;;;;;0.60;0.50;;;11.90;71.40;;;;;;5066655;28;20032;-45
2021/05/22 00:27:24;;;;;;;1.85;0.60;;;11.90;71.30;;;;;;5065991;28;20221;-45
2021/05/22 00:29:49;;;;;;;4.10;0.50;;;11.90;71.30;;;;;;5065728;28;20087;-47
2021/05/22 00:32:15;;;;;;;2.83;0.52;;;11.90;71.40;;;;;;5047749;28;20089;-45
2021/05/22 00:34:40;;;;;;;1.17;0.40;;;11.80;71.40;;;;;;5065183;28;20332;-45
2021/05/22 00:37:06;;;;;;;1.55;0.50;;;11.80;71.50;;;;;;5067329;28;20025;-45
2021/05/22 00:39:32;;;;;;;1.23;0.50;;;11.80;71.80;;;;;;5065382;28;20037;-46
2021/05/22 00:42:02;;;;;;;0.85;0.40;;;11.80;71.70;;;;;;5065190;28;20389;-48
2021/05/22 00:44:31;;;;;;;1.50;0.77;;;11.80;71.90;;;;;;5065594;28;20033;-45
2021/05/22 00:46:56;;;;;;;1.00;0.55;;;11.80;72.00;;;;;;5065162;28;20088;-45
2021/05/22 00:49:22;;;;;;;1.02;0.50;;;11.80;72.10;;;;;;5066761;28;20044;-46
2021/05/22 00:51:47;;;;;;;0.70;0.47;;;11.80;72.30;;;;;;5065601;28;20064;-46
2021/05/22 00:54:13;;;;;;;0.63;0.40;;;11.80;72.20;;;;;;5065040;28;20033;-49
2021/05/22 00:56:38;;;;;;;1.63;0.50;;;11.60;72.40;;;;;;5065016;28;20037;-46
2021/05/22 00:59:04;;;;;;;2.47;0.38;;;11.70;72.30;;;;;;5063757;28;20101;-45
2021/05/22 01:01:29;;;;;;;1.08;0.40;;;11.80;72.60;;;;;;5063637;28;20037;-44
2021/05/22 01:03:55;;;;;;;0.85;0.40;;;11.70;72.40;;;;;;5066455;28;20029;-47
2021/05/22 01:06:24;;;;;;;0.57;0.40;;;11.80;72.80;;;;;;5065336;28;20056;-48
2021/05/22 01:08:56;;;;;;;0.60;0.40;;;11.80;72.30;;;;;;5065120;28;20088;-48
2021/05/22 01:11:24;;;;;;;0.52;0.35;;;11.80;72.30;;;;;;5063080;28;20037;-46
2021/05/22 01:14:02;;;;;;;0.68;0.40;;;11.70;72.30;;;;;;5063581;28;20065;-46
2021/05/22 01:16:28;;;;;;;1.45;0.50;;;11.70;72.10;;;;;;5066473;28;20033;-47
2021/05/22 01:18:53;;;;;;;0.70;0.47;;;11.70;72.30;;;;;;5067260;28;20035;-46
2021/05/22 01:21:19;;;;;;;1.05;0.50;;;11.70;72.20;;;;;;5083164;28;20078;-45
2021/05/22 01:23:57;;;;;;;0.57;0.40;;;11.60;72.10;;;;;;5084532;28;20397;-46
2021/05/22 01:26:22;;;;;;;1.02;0.30;;;11.50;72.40;;;;;;5084643;28;20052;-46
2021/05/22 01:28:48;;;;;;;0.85;0.50;;;11.50;72.20;;;;;;5083572;28;20040;-45
2021/05/22 01:31:13;;;;;;;0.88;0.40;;;11.50;71.90;;;;;;5085374;28;20347;-46
2021/05/22 01:33:39;;;;;;;0.45;0.35;;;11.40;72.10;;;;;;5085169;28;20190;-47
2021/05/22 01:36:05;;;;;;;0.43;0.30;;;11.50;72.30;;;;;;5084781;28;20033;-46
2021/05/22 01:38:31;;;;;;;2.47;0.40;;;11.50;72.30;;;;;;5084415;28;20340;-46
2021/05/22 01:40:56;;;;;;;0.35;0.30;;;11.40;71.90;;;;;;5084169;28;20056;-45
2021/05/22 01:43:22;;;;;;;1.85;0.40;;;11.40;72.10;;;;;;5085707;28;20313;-46
2021/05/22 01:45:49;;;;;;;1.77;0.40;;;11.30;72.10;;;;;;5083714;28;20040;-46
2021/05/22 01:48:18;;;;;;;1.38;0.50;;;11.30;71.80;;;;;;5084662;28;20332;-45
2021/05/22 01:50:48;;;;;;;1.90;0.40;;;11.40;72.10;;;;;;5084058;28;20059;-45
2021/05/22 01:53:14;;;;;;;2.55;0.32;;;11.40;71.80;;;;;;5083450;28;20028;-45
2021/05/22 01:55:40;;;;;;;0.40;0.30;;;11.30;71.50;;;;;;5083114;28;20021;-45
2021/05/22 01:58:05;;;;;;;0.50;0.40;;;11.30;71.80;;;;;;5084408;28;20031;-45
2021/05/22 02:00:31;;;;;;;0.50;0.30;;;11.30;71.90;;;;;;5084045;28;20036;-45
2021/05/22 02:03:15;;;;;;;1.85;0.30;;;11.20;71.90;;;;;;5082352;28;20082;-45
2021/05/22 02:05:41;;;;;;;1.77;0.47;;;11.20;71.90;;;;;;5083775;28;20040;-45
2021/05/22 02:08:11;;;;;;;0.38;0.30;;;11.20;72.10;;;;;;5082531;28;20047;-45
2021/05/22 02:10:37;;;;;;;1.08;0.30;;;11.20;72.10;;;;;;5082874;28;20078;-45
2021/05/22 02:13:03;;;;;;;0.30;0.30;;;11.20;72.40;;;;;;5085489;28;20316;-46
2021/05/22 02:15:28;;;;;;;0.70;0.40;;;11.30;72.00;;;;;;5082734;28;20040;-46
2021/05/22 02:17:54;;;;;;;0.65;0.32;;;11.10;72.10;;;;;;5082340;28;20104;-49
2021/05/22 02:20:20;;;;;;;1.13;0.30;;;11.10;72.40;;;;;;5083336;28;20033;-46
2021/05/22 02:22:46;;;;;;;0.30;0.30;;;11.20;72.80;;;;;;5082301;28;20077;-45
2021/05/22 02:25:12;;;;;;;1.00;0.40;;;11.20;72.50;;;;;;5084117;28;20312;-45
2021/05/22 02:27:37;;;;;;;1.02;0.30;;;11.20;72.30;;;;;;5083963;28;20095;-45
2021/05/22 02:30:07;;;;;;;1.30;0.20;;;11.20;72.00;;;;;;5083234;28;20047;-49
2021/05/22 02:32:33;;;;;;;1.35;0.30;;;11.20;71.70;;;;;;5083421;28;20067;-45
2021/05/22 02:34:58;;;;;;;0.68;0.30;;;11.10;71.30;;;;;;5082124;28;20217;-45
2021/05/22 02:37:29;;;;;;;0.68;0.30;;;11.10;71.80;;;;;;5083618;28;20032;-46
2021/05/22 02:39:57;;;;;;;2.17;0.47;;;10.90;71.70;;;;;;5082344;28;20032;-45
2021/05/22 02:42:23;;;;;;;2.15;0.30;;;11.00;71.90;;;;;;5082207;28;20336;-47
2021/05/22 02:44:50;;;;;;;1.00;0.40;;;11.00;72.00;;;;;;5081832;28;20025;-45
2021/05/22 02:47:16;;;;;;;0.30;0.30;;;11.10;71.90;;;;;;5083270;28;20052;-45
2021/05/22 02:49:42;;;;;;;0.30;0.30;;;11.10;71.90;;;;;;5082073;28;20331;-45
2021/05/22 02:52:09;;;;;;;0.77;0.30;;;11.10;71.60;;;;;;5084992;28;20059;-45
2021/05/22 02:54:39;;;;;;;1.17;0.30;;;11.10;71.50;;;;;;5082196;28;20214;-46
2021/05/22 02:57:06;;;;;;;1.08;0.30;;;11.00;71.60;;;;;;5081981;28;20028;-45
2021/05/22 02:59:32;;;;;;;0.50;0.30;;;11.00;71.80;;;;;;5082797;28;20037;-46
2021/05/22 03:01:58;;;;;;;0.30;0.30;;;11.10;71.80;;;;;;5081690;28;20086;-48
2021/05/22 03:04:23;;;;;;;0.70;0.30;;;11.00;71.60;;;;;;5083521;28;20024;-47
2021/05/22 03:06:49;;;;;;;0.25;0.20;;;11.10;71.80;;;;;;5081934;28;20036;-47
2021/05/22 03:09:14;;;;;;;0.30;0.30;;;11.10;71.70;;;;;;5082573;28;20074;-45
2021/05/22 03:11:40;;;;;;;0.60;0.40;;;11.10;71.90;;;;;;5082643;28;20024;-45
2021/05/22 03:14:05;;;;;;;1.65;0.38;;;11.10;71.80;;;;;;5082552;28;20028;-45
2021/05/22 03:16:31;;;;;;;1.05;0.30;;;11.10;71.60;;;;;;5082780;28;20103;-50
2021/05/22 03:18:57;;;;;;;1.10;0.30;;;11.10;71.60;;;;;;5084104;28;20031;-46
2021/05/22 03:21:23;;;;;;;0.38;0.30;;;11.10;71.60;;;;;;5081175;28;20075;-46
2021/05/22 03:23:49;;;;;;;1.35;0.40;;;11.10;71.70;;;;;;5082646;28;20067;-46
2021/05/22 03:26:14;;;;;;;1.60;0.32;;;11.10;71.80;;;;;;5082413;28;20036;-46
2021/05/22 03:28:40;;;;;;;0.85;0.30;;;11.10;71.90;;;;;;5082742;28;20028;-50
2021/05/22 03:31:05;;;;;;;0.22;0.22;;;11.10;72.00;;;;;;5084005;28;20033;-47
2021/05/22 03:33:31;;;;;;;1.65;0.40;;;11.10;71.70;;;;;;5082457;28;20100;-47
2021/05/22 03:35:56;;;;;;;1.38;0.35;;;11.00;71.80;;;;;;5082891;28;20032;-46
2021/05/22 03:38:22;;;;;;;1.10;0.50;;;11.10;71.80;;;;;;5086742;28;20036;-45
2021/05/22 03:40:48;;;;;;;0.35;0.30;;;11.00;71.50;;;;;;5082263;28;20271;-48
2021/05/22 03:43:13;;;;;;;1.02;0.30;;;11.00;71.70;;;;;;5084066;28;20040;-45
2021/05/22 03:45:39;;;;;;;0.38;0.30;;;11.00;71.40;;;;;;5082666;28;20048;-46
2021/05/22 03:48:04;;;;;;;1.95;0.45;;;11.10;71.50;;;;;;5082411;28;20093;-49
2021/05/22 03:50:30;;;;;;;0.30;0.30;;;11.00;72.00;;;;;;5082137;28;20082;-46
2021/05/22 03:52:55;;;;;;;0.30;0.30;;;11.00;71.90;;;;;;5082251;28;20029;-45
2021/05/22 03:55:21;;;;;;;0.93;0.30;;;11.00;72.00;;;;;;5084021;28;20317;-45
2021/05/22 03:57:46;;;;;;;0.38;0.30;;;11.10;71.60;;;;;;5082626;28;20108;-47
2021/05/22 04:00:14;;;;;;;1.95;0.30;;;11.10;71.40;;;;;;5082446;28;20036;-46
2021/05/22 04:02:40;;;;;;;0.50;0.30;;;11.10;71.70;;;;;;5081644;28;20340;-46
2021/05/22 04:05:06;;;;;;;0.52;0.30;;;11.00;71.10;;;;;;5082538;28;20100;-46
2021/05/22 04:07:32;;;;;;;1.08;0.30;;;11.10;71.50;;;;;;5081930;28;20060;-47
2021/05/22 04:09:57;;;;;;;2.22;0.40;;;11.10;71.60;;;;;;5082437;28;20327;-47
2021/05/22 04:12:23;;;;;;;0.50;0.20;;;11.20;71.60;;;;;;5082395;28;20037;-46
2021/05/22 04:14:48;;;;;;;0.30;0.22;;;11.10;71.20;;;;;;5082304;28;20036;-46
2021/05/22 04:17:14;;;;;;;0.77;0.40;;;11.10;71.30;;;;;;5081965;28;20272;-46
2021/05/22 04:19:39;;;;;;;0.30;0.30;;;11.10;71.30;;;;;;5082122;28;20028;-45
2021/05/22 04:22:05;;;;;;;0.30;0.30;;;11.20;71.10;;;;;;5083378;28;20072;-46
2021/05/22 04:24:31;;;;;;;2.53;0.40;;;11.20;71.30;;;;;;5082207;28;20043;-45
2021/05/22 04:26:56;;;;;;;3.85;0.55;;;11.20;71.30;;;;;;5063916;28;20040;-45
2021/05/22 04:29:22;;;;;;;0.50;0.40;;;11.30;71.30;;;;;;5081744;28;20032;-45
2021/05/22 04:31:47;;;;;;;0.30;0.30;;;11.20;71.30;;;;;;5082024;28;20066;-46
2021/05/22 04:34:13;;;;;;;1.48;0.60;;;11.10;71.70;;;;;;5082818;28;20035;-47
2021/05/22 04:36:39;;;;;;;0.30;0.30;;;11.10;71.40;;;;;;5082235;28;20051;-48
2021/05/22 04:39:05;;;;;;;0.30;0.30;;;11.20;71.70;;;;;;5081846;28;20063;-46
2021/05/22 04:41:30;;;;;;;0.82;0.40;;;11.20;71.70;;;;;;5081380;28;20036;-46
2021/05/22 04:43:56;;;;;;;0.55;0.30;;;11.20;71.30;;;;;;5081687;28;20097;-45
2021/05/22 04:46:21;;;;;;;2.70;0.35;;;11.20;71.30;;;;;;5085206;28;20031;-46
2021/05/22 04:48:47;;;;;;;0.50;0.30;;;11.20;71.30;;;;;;5085527;28;20043;-47
2021/05/22 04:51:15;;;;;;;2.15;0.50;;;11.30;71.10;;;;;;5084068;28;20035;-45
2021/05/22 04:53:40;;;;;;;0.40;0.40;;;11.20;71.10;;;;;;5085280;28;20024;-47
2021/05/22 04:56:06;;;;;;;1.48;0.40;;;11.30;71.10;;;;;;5085232;28;20055;-46
2021/05/22 04:58:31;;;;;;;1.05;0.40;;;11.30;71.10;;;;;;5084730;28;20033;-47
2021/05/22 05:00:57;;;;;;;0.35;0.30;;;11.40;71.20;;;;;;5086573;28;20057;-47
2021/05/22 05:03:22;;;;;;;0.93;0.30;;;11.40;71.30;;;;;;5084836;28;20037;-45
2021/05/22 05:05:48;;;;;;;2.08;0.40;;;11.30;71.30;;;;;;5085215;28;20036;-47
2021/05/22 05:08:18;;;;;;;2.75;0.40;;;11.40;71.00;;;;;;5085091;28;20336;-46
2021/05/22 05:10:47;;;;;;;0.40;0.32;;;11.40;70.70;;;;;;5085170;28;20028;-45
2021/05/22 05:13:13;;;;;;;0.82;0.30;;;11.40;71.00;;;;;;5086735;28;20066;-46
2021/05/22 05:15:39;;;;;;;2.13;0.40;;;11.40;70.90;;;;;;5085216;28;20036;-47
2021/05/22 05:18:05;;;;;;;0.50;0.30;;;11.30;70.70;;;;;;5084700;28;20079;-48
2021/05/22 05:20:31;;;;;;;2.50;0.52;;;11.30;70.80;;;;;;5084559;28;20036;-46
2021/05/22 05:22:56;;;;;;;0.73;0.32;;;11.30;70.90;;;;;;5084687;28;20047;-46
2021/05/22 05:25:22;;;;;;;1.58;0.47;;;11.30;70.70;;;;;;5086428;28;20099;-46
2021/05/22 05:27:47;;;;;;;0.52;0.30;;;11.40;70.90;;;;;;5085019;28;20036;-48
2021/05/22 05:30:13;;;;;;;0.60;0.32;;;11.40;71.00;;;;;;5084449;28;20052;-48
2021/05/22 05:32:39;;;;;;;1.02;0.40;;;11.40;70.80;;;;;;5083198;28;20037;-46
2021/05/22 05:35:04;;;;;;;1.90;0.50;;;11.50;70.80;;;;;;5084254;28;20047;-47
2021/05/22 05:37:30;;;;;;;0.70;0.40;;;11.50;70.90;;;;;;5084418;28;20366;-47
2021/05/22 05:39:55;;;;;;;2.75;0.40;;;11.50;70.90;;;;;;5085796;28;20320;-45
2021/05/22 05:42:21;;;;;;;2.95;0.40;;;11.50;70.80;;;;;;5084540;28;20328;-45
2021/05/22 05:44:47;;;;;;;0.80;0.40;;;11.50;70.60;;;;;;5084412;28;20029;-47
2021/05/22 05:47:12;;;;;;;0.80;0.40;;;11.50;70.80;;;;;;5084224;28;20031;-46
2021/05/22 05:49:38;;;;;;;3.47;0.75;;;11.60;71.00;;;;;;5083976;28;20032;-46
2021/05/22 05:52:03;;;;;;;3.45;0.60;;;11.60;71.00;;;;;;5085846;28;20036;-46
2021/05/22 05:54:29;;;;;;;2.38;0.50;;;11.60;70.50;;;;;;5084440;28;20048;-45
2021/05/22 05:56:54;;;;;;;1.33;0.40;;;11.60;70.00;;;;;;5084179;28;20037;-47
2021/05/22 05:59:20;;;;;;;1.20;0.30;;;11.60;70.20;;;;;;5083952;28;20096;-45
2021/05/22 06:01:45;;;;;;;0.60;0.40;;;11.50;69.90;;;;;;5083695;28;20225;-48
2021/05/22 06:04:11;;;;;;;1.25;0.50;;;11.60;70.30;;;;;;5085643;28;20304;-48
2021/05/22 06:06:37;;;;;;;1.88;0.68;;;11.60;70.20;;;;;;5083078;28;20332;-47
2021/05/22 06:09:04;;;;;;;0.57;0.35;;;11.60;70.40;;;;;;5083903;28;20059;-48
2021/05/22 06:11:32;;;;;;;0.70;0.40;;;11.60;70.10;;;;;;5083762;28;20041;-48
2021/05/22 06:13:58;;;;;;;0.88;0.43;;;11.80;70.60;;;;;;5083771;28;20189;-46
2021/05/22 06:16:29;;;;;;;0.98;0.38;;;11.80;70.10;;;;;;5085118;28;20033;-47
2021/05/22 06:18:54;;;;;;;1.45;0.45;;;11.80;69.80;;;;;;5084443;28;20036;-45
2021/05/22 06:21:20;;;;;;;1.38;0.52;;;11.80;70.20;;;;;;5083197;28;20058;-45
2021/05/22 06:23:45;;;;;;;1.17;0.40;;;11.90;70.40;;;;;;5083400;28;20037;-46
2021/05/22 06:26:11;;;;;;;0.82;0.40;;;11.90;70.20;;;;;;5083281;28;20066;-46
2021/05/22 06:28:36;;;;;;;1.30;0.43;;;12.00;70.40;;;;;;5083753;28;20043;-46
2021/05/22 06:31:04;;;;;;;0.95;0.50;;;12.00;70.00;;;;;;5085080;28;20053;-49
2021/05/22 06:33:30;;;;;;;0.60;0.40;;;12.10;69.80;;;;;;5083074;28;20363;-46
2021/05/22 06:35:55;;;;;;;1.00;0.50;;;12.10;69.80;;;;;;5083098;28;20033;-46
2021/05/22 06:38:22;;;;;;;1.23;0.57;;;12.20;69.60;;;;;;5083032;28;20021;-50
2021/05/22 06:40:47;;;;;;;1.90;0.45;;;12.20;69.40;;;;;;5083008;28;20308;-47
2021/05/22 06:43:13;;;;;;;0.40;0.30;;;12.30;69.30;;;;;;5083534;28;20028;-47
2021/05/22 06:45:43;;;;;;;1.80;0.60;;;12.20;69.20;;;;;;5083221;28;20033;-46
2021/05/22 06:48:10;;;;;;;2.15;0.80;;;12.30;69.30;;;;;;5082761;28;20224;-46
2021/05/22 06:50:36;;;;;;;1.30;0.50;;;12.30;69.50;;;;;;5082878;28;20032;-49
2021/05/22 06:53:01;;;;;;;2.28;0.47;;;12.40;69.50;;;;;;5082788;28;20252;-47
2021/05/22 06:55:27;;;;;;;1.00;0.40;;;12.40;69.00;;;;;;5083804;28;20139;-46
2021/05/22 06:57:52;;;;;;;0.60;0.40;;;12.40;68.80;;;;;;5083470;28;20029;-47
2021/05/22 07:00:18;;;;;;;3.08;0.50;;;12.40;69.00;;;;;;5083107;28;20201;-45
2021/05/22 07:02:44;;;;;;;1.63;0.50;;;12.40;69.40;;;;;;5082709;28;20048;-46
2021/05/22 07:05:10;;;;;;;2.28;0.70;;;12.40;69.30;;;;;;5082884;28;20058;-48
2021/05/22 07:07:38;;;;;;;4.25;1.25;;;12.50;68.60;;;;;;5082650;28;20036;-46
2021/05/22 07:10:04;;;;;;;5.60;1.58;;;12.50;68.90;;;;;;5083717;28;20078;-47
2021/05/22 07:12:30;;;;;;;10.73;3.60;;;12.60;68.80;;;;;;5082901;28;20303;-48
2021/05/22 07:14:55;;;;;;;4.95;1.13;;;12.70;69.00;;;;;;5081752;28;20032;-46
2021/05/22 07:17:21;;;;;;;4.40;0.98;;;12.80;68.80;;;;;;5082514;28;20343;-46
2021/05/22 07:19:46;;;;;;;5.20;0.90;;;12.80;68.60;;;;;;5082929;28;20031;-41
2021/05/22 07:22:12;;;;;;;3.53;0.80;;;12.80;68.00;;;;;;5083989;28;20052;-40
2021/05/22 07:24:37;;;;;;;3.97;1.38;;;12.80;67.40;;;;;;5083228;28;20040;-40
2021/05/22 07:27:03;;;;;;;7.00;1.25;;;12.90;67.00;;;;;;5082904;28;20032;-40
2021/05/22 07:29:30;;;;;;;2.10;0.80;;;13.00;66.70;;;;;;5082630;28;20032;-41
2021/05/22 07:31:56;;;;;;;4.47;1.00;;;13.10;66.90;;;;;;5082699;28;20221;-41
2021/05/22 07:34:21;;;;;;;1.50;0.60;;;13.10;66.70;;;;;;5084460;28;20025;-41
2021/05/22 07:36:47;;;;;;;5.32;1.20;;;13.20;66.40;;;;;;5081311;28;20044;-41
2021/05/22 07:39:13;;;;;;;5.00;1.13;;;13.20;65.80;;;;;;5082243;28;20283;-41
2021/05/22 07:41:40;;;;;;;6.38;1.05;;;13.30;66.10;;;;;;5081912;28;20060;-40
2021/05/22 07:44:05;;;;;;;4.55;0.90;;;13.30;65.10;;;;;;5081121;28;20029;-40
2021/05/22 07:46:31;;;;;;;3.65;1.00;;;13.40;65.00;;;;;;5082479;28;20098;-40
2021/05/22 07:48:56;;;;;;;3.30;0.88;;;13.50;64.80;;;;;;5084132;28;20048;-40
2021/05/22 07:51:22;;;;;;;4.43;1.20;;;13.60;65.10;;;;;;5082387;28;20029;-41
2021/05/22 07:53:48;;;;;;;4.43;1.02;;;13.80;64.20;;;;;;5081257;28;20085;-41
2021/05/22 07:56:13;;;;;;;4.47;0.85;;;13.80;63.20;;;;;;5082319;28;20086;-41
2021/05/22 07:58:39;;;;;;;4.20;1.08;;;13.90;62.70;;;;;;5082519;28;20212;-41
2021/05/22 08:01:04;;;;;;;7.32;0.90;;;13.90;61.40;;;;;;5083811;28;20126;-40
2021/05/22 08:03:30;;;;;;;4.68;0.90;;;14.00;62.10;;;;;;5082678;28;20040;-41
2021/05/22 08:05:55;;;;;;;4.93;1.00;;;14.10;61.00;;;;;;5082168;28;20041;-41
2021/05/22 08:08:21;;;;;;;4.85;1.30;;;14.30;61.90;;;;;;5082239;28;20052;-41
2021/05/22 08:10:47;;;;;;;5.55;1.10;;;14.30;60.60;;;;;;5082295;28;20313;-41
2021/05/22 08:13:12;;;;;;;4.03;0.95;;;14.40;60.70;;;;;;5083932;28;20084;-41
2021/05/22 08:15:38;;;;;;;6.65;1.13;;;14.50;60.60;;;;;;5082009;28;20041;-41
2021/05/22 08:18:04;;;;;;;6.50;1.00;;;14.60;59.30;;;;;;5082203;28;20045;-41
2021/05/22 08:20:30;;;;;;;6.05;1.00;;;14.70;57.70;;;;;;5081290;28;20029;-41
2021/05/22 08:22:55;;;;;;;3.35;0.70;;;14.80;58.20;;;;;;5085603;28;20071;-41
2021/05/22 08:25:21;;;;;;;5.47;1.00;;;14.90;58.40;;;;;;5087553;28;20032;-40
2021/05/22 08:27:47;;;;;;;6.93;0.98;;;15.00;57.80;;;;;;5085743;28;20033;-41
2021/05/22 08:30:12;;;;;;;4.43;0.70;;;15.10;56.80;;;;;;5085723;28;20086;-41
2021/05/22 08:32:38;;;;;;;5.85;1.20;;;15.20;56.50;;;;;;5085907;28;20028;-40
2021/05/22 08:35:05;;;;;;;5.07;1.00;;;15.30;57.00;;;;;;5085367;28;20032;-40
2021/05/22 08:37:30;;;;;;;6.43;1.35;;;15.40;57.20;;;;;;5085718;28;20040;-43
2021/05/22 08:39:56;;;;;;;7.78;1.00;;;15.30;56.00;;;;;;5087034;28;20092;-39
2021/05/22 08:42:23;;;;;;;3.75;1.02;;;15.40;55.60;;;;;;5085477;28;20048;-41
2021/05/22 08:44:49;;;;;;;5.97;0.77;;;15.50;55.20;;;;;;5084348;28;20309;-41
2021/05/22 08:47:14;;;;;;;4.40;0.98;;;15.60;55.30;;;;;;5085107;28;20063;-40
2021/05/22 08:49:41;;;;;;;4.18;1.00;;;15.60;54.90;;;;;;5085263;28;20037;-42
2021/05/22 08:52:16;;;;;;;5.50;1.00;;;15.70;54.00;;;;;;5087296;28;20055;-41
2021/05/22 08:54:43;;;;;;;4.57;1.10;;;15.60;53.00;;;;;;5085149;28;20040;-41
2021/05/22 08:57:08;;;;;;;2.92;0.90;;;15.60;51.90;;;;;;5084939;28;20044;-41
2021/05/22 08:59:41;;;;;;;7.00;1.00;;;15.70;51.40;;;;;;5084838;28;20236;-41
2021/05/22 09:02:06;;;;;;;3.03;0.93;;;15.60;51.70;;;;;;5085253;28;20115;-41
2021/05/22 09:04:32;;;;;;;4.22;0.80;;;15.70;50.80;;;;;;5084997;28;20070;-41
2021/05/22 09:07:05;;;;;;;3.80;0.98;;;15.80;50.70;;;;;;5085249;28;20029;-41
2021/05/22 09:09:41;;;;;;;5.43;1.13;;;15.80;51.00;;;;;;5085470;28;20047;-41
2021/05/22 09:12:07;;;;;;;4.43;0.77;;;15.90;52.40;;;;;;5083976;28;20029;-41
2021/05/22 09:14:42;;;;;;;3.88;1.00;;;15.90;51.80;;;;;;5084604;28;20052;-41
2021/05/22 09:17:08;;;;;;;4.32;0.70;;;15.90;50.50;;;;;;5083764;28;20079;-41
2021/05/22 09:19:34;;;;;;;6.40;1.23;;;15.90;49.20;;;;;;5084016;28;20224;-41
2021/05/22 09:22:11;;;;;;;5.78;0.88;;;16.00;49.30;;;;;;5085873;28;20048;-41
2021/05/22 09:24:57;;;;;;;4.78;0.90;;;16.00;49.80;;;;;;5084662;28;20033;-41
2021/05/22 09:27:23;;;;;;;2.72;0.88;;;16.10;49.50;;;;;;5084234;28;20104;-41
2021/05/22 09:29:49;;;;;;;2.90;0.70;;;16.20;49.80;;;;;;5084485;28;20033;-40
2021/05/22 09:32:15;;;;;;;4.47;0.90;;;16.30;49.70;;;;;;5084086;28;20193;-40
2021/05/22 09:34:40;;;;;;;3.17;1.00;;;16.30;49.60;;;;;;5084280;28;20079;-45
2021/05/22 09:37:12;;;;;;;3.20;1.10;;;16.40;49.90;;;;;;5084748;28;20024;-41
2021/05/22 09:39:51;;;;;;;3.17;0.77;;;16.50;49.60;;;;;;5084858;28;20040;-41
2021/05/22 09:42:31;;;;;;;3.50;1.00;;;16.50;48.70;;;;;;5083416;28;20052;-41
2021/05/22 09:44:57;;;;;;;6.90;1.25;;;16.60;48.20;;;;;;5084235;28;20092;-41
2021/05/22 09:47:23;;;;;;;1.95;0.70;;;16.60;49.00;;;;;;5083128;28;20036;-41
2021/05/22 09:49:49;;;;;;;3.95;1.02;;;16.70;48.40;;;;;;5084376;28;20028;-41
2021/05/22 09:52:18;;;;;;;3.58;0.80;;;16.80;48.30;;;;;;5085668;28;20032;-41
2021/05/22 09:54:51;;;;;;;4.88;0.80;;;16.90;48.20;;;;;;5084656;28;20037;-41
2021/05/22 09:57:32;;;;;;;4.30;0.80;;;17.00;48.60;;;;;;5083814;28;20036;-41
2021/05/22 10:00:20;;;;;;;3.95;0.90;;;17.10;48.50;;;;;;5083912;28;20047;-41
2021/05/22 10:03:01;;;;;;;3.03;0.60;;;17.10;47.80;;;;;;5082607;28;20064;-42
2021/05/22 10:05:29;;;;;;;2.28;0.73;;;17.00;47.70;;;;;;5083845;28;20117;-42
2021/05/22 10:07:55;;;;;;;2.55;0.70;;;17.00;47.60;;;;;;5083552;28;20058;-41
2021/05/22 10:10:22;;;;;;;5.65;1.10;;;17.00;48.10;;;;;;5084210;28;20032;-41
2021/05/22 10:12:47;;;;;;;4.50;1.40;;;17.10;48.30;;;;;;5084443;28;20234;-42
2021/05/22 10:15:17;;;;;;;3.50;1.23;;;17.20;49.00;;;;;;5083875;28;20044;-41
2021/05/22 10:17:43;;;;;;;2.53;1.10;;;17.20;49.20;;;;;;5083672;28;20053;-41
2021/05/22 10:20:12;;;;;;;4.43;1.00;;;17.30;48.70;;;;;;5083521;28;20312;-41
2021/05/22 10:22:40;;;;;;;3.33;1.00;;;17.30;47.70;;;;;;5083146;28;20107;-41
2021/05/22 10:25:06;;;;;;;2.83;0.95;;;17.40;48.80;;;;;;5085300;28;20036;-41
2021/05/22 10:27:33;;;;;;;3.15;0.73;;;17.40;48.80;;;;;;5083761;28;20036;-42
2021/05/22 10:29:59;;;;;;;4.13;0.75;;;17.50;47.50;;;;;;5082485;28;20056;-41
2021/05/22 10:32:26;;;;;;;2.83;0.88;;;17.40;46.60;;;;;;5082838;28;20043;-41
2021/05/22 10:34:52;;;;;;;2.25;0.70;;;17.50;47.10;;;;;;5082912;28;20024;-41
2021/05/22 10:37:38;;;;;;;5.55;1.00;;;17.50;46.80;;;;;;5084866;28;20091;-41
2021/05/22 10:40:04;;;;;;;2.75;0.82;;;17.60;47.80;;;;;;5083946;28;20024;-43
2021/05/22 10:42:30;;;;;;;4.13;1.00;;;17.60;48.30;;;;;;5083185;28;20041;-46
2021/05/22 10:44:56;;;;;;;3.35;0.70;;;17.70;47.80;;;;;;5082634;28;20051;-42
2021/05/22 10:47:27;;;;;;;2.33;0.77;;;17.80;48.70;;;;;;5082965;28;20028;-45
2021/05/22 10:49:56;;;;;;;6.35;1.00;;;17.90;47.10;;;;;;5081918;28;20028;-43
2021/05/22 10:52:23;;;;;;;4.63;1.20;;;17.90;45.40;;;;;;5084648;28;20032;-44
2021/05/22 10:55:08;;;;;;;3.58;1.00;;;18.00;46.40;;;;;;5083251;28;20085;-42
2021/05/22 10:57:46;;;;;;;2.80;0.90;;;18.10;45.90;;;;;;5083281;28;20037;-43
2021/05/22 11:00:14;;;;;;;2.80;0.90;;;18.10;44.30;;;;;;5082843;28;20060;-43
2021/05/22 11:02:47;;;;;;;3.58;1.17;;;18.10;44.30;;;;;;5081531;28;20036;-45
2021/05/22 11:05:23;;;;;;;2.33;0.85;;;18.10;45.20;;;;;;5083044;28;20036;-43
2021/05/22 11:08:09;;;;;;;3.72;0.73;;;18.20;46.30;;;;;;5082730;28;20040;-44
2021/05/22 11:10:49;;;;;;;2.58;0.75;;;18.30;47.00;;;;;;5082595;28;20054;-44
2021/05/22 11:13:20;;;;;;;2.05;1.00;;;18.30;44.70;;;;;;5084264;28;20074;-43
2021/05/22 11:15:51;;;;;;;3.33;0.70;;;18.40;45.00;;;;;;5083451;28;20037;-44
2021/05/22 11:18:19;;;;;;;2.03;0.60;;;18.40;45.40;;;;;;5082753;28;20044;-45
2021/05/22 11:21:10;;;;;;;3.20;0.90;;;18.30;43.80;;;;;;5082635;28;20036;-43
2021/05/22 11:23:58;;;;;;;2.92;0.70;;;18.40;44.70;;;;;;5082349;28;20036;-43
2021/05/22 11:26:58;;;;;;;5.22;0.98;;;18.40;44.70;;;;;;5080869;28;20029;-43
2021/05/22 11:29:55;;;;;;;5.13;0.67;;;18.40;44.40;;;;;;5082351;28;20029;-43
2021/05/22 11:32:47;;;;;;;1.58;0.80;;;18.60;45.30;;;;;;5082564;28;20036;-43
2021/05/22 11:35:28;;;;;;;1.38;0.70;;;18.70;44.20;;;;;;5082501;28;20088;-43
2021/05/22 11:37:55;;;;;;;1.67;0.68;;;18.80;45.00;;;;;;5082365;28;20212;-44
2021/05/22 11:40:36;;;;;;;2.50;0.70;;;18.80;44.00;;;;;;5083815;28;20094;-43
2021/05/22 11:43:22;;;;;;;3.58;0.70;;;18.80;41.10;;;;;;5083099;28;20112;-43
2021/05/22 11:45:57;;;;;;;2.50;0.68;;;18.80;42.20;;;;;;5082883;28;20036;-44
2021/05/22 11:48:40;;;;;;;1.90;0.80;;;18.80;43.40;;;;;;5082715;28;20037;-44
2021/05/22 11:51:11;;;;;;;2.03;0.90;;;19.00;43.30;;;;;;5082299;28;20096;-43
2021/05/22 11:53:37;;;;;;;2.83;0.60;;;19.10;43.00;;;;;;5082292;28;20347;-43
2021/05/22 11:56:14;;;;;;;5.28;1.02;;;19.20;43.00;;;;;;5085665;28;20097;-43
2021/05/22 11:58:48;;;;;;;3.83;0.82;;;19.20;41.50;;;;;;5086189;28;20025;-45
2021/05/22 12:01:24;;;;;;;4.18;0.70;;;19.20;40.40;;;;;;5088411;28;20029;-43
2021/05/22 12:03:54;;;;;;;2.67;0.70;;;19.30;41.60;;;;;;5086577;28;20094;-42
2021/05/22 12:06:34;;;;;;;4.07;0.70;;;19.40;41.20;;;;;;5086360;28;20036;-44
2021/05/22 12:09:10;;;;;;;3.63;0.70;;;19.40;40.40;;;;;;5086424;28;20056;-42
2021/05/22 12:11:41;;;;;;;2.53;0.77;;;19.40;39.40;;;;;;5085640;28;20126;-42
2021/05/22 12:14:07;;;;;;;3.67;0.70;;;19.40;39.80;;;;;;5084793;28;20033;-44
2021/05/22 12:16:33;;;;;;;2.50;0.65;;;19.60;40.00;;;;;;5068217;28;20067;-42
2021/05/22 12:19:09;;;;;;;1.10;0.50;;;19.60;39.80;;;;;;5087248;28;20029;-42
2021/05/22 12:21:34;;;;;;;1.60;0.50;;;19.60;39.00;;;;;;5084524;28;20060;-47
2021/05/22 12:24:02;;;;;;;2.42;0.90;;;19.70;39.40;;;;;;5085575;28;20095;-43
2021/05/22 12:26:28;;;;;;;3.97;1.50;;;19.70;39.50;;;;;;5084216;28;20071;-44
2021/05/22 12:28:53;;;;;;;5.15;1.05;;;19.70;38.90;;;;;;5085347;28;20032;-43
2021/05/22 12:31:19;;;;;;;2.90;0.52;;;19.70;38.80;;;;;;5086174;28;20031;-42
2021/05/22 12:33:58;;;;;;;2.50;0.70;;;19.80;39.80;;;;;;5086010;28;20032;-43
2021/05/22 12:36:24;;;;;;;3.55;0.80;;;19.80;39.50;;;;;;5085408;28;20033;-43
2021/05/22 12:38:49;;;;;;;4.00;0.77;;;19.80;39.30;;;;;;5085210;28;20085;-42
2021/05/22 12:41:16;;;;;;;8.65;1.67;;;19.80;39.20;;;;;;5085046;28;20033;-43
2021/05/22 12:43:50;;;;;;;6.95;1.42;;;19.90;39.20;;;;;;5084991;28;20099;-43
2021/05/22 12:46:26;;;;;;;6.47;1.70;;;19.90;40.10;;;;;;5087153;28;20088;-42
2021/05/22 12:48:52;;;;;;;8.80;2.25;;;20.00;39.50;;;;;;5085174;28;20133;-42
2021/05/22 12:51:21;;;;;;;19.75;6.20;;;20.10;39.40;;;;;;5085579;28;20032;-41